createdAt,value
2019-03-08T00:00:05.229Z,7.30
2019-03-08T00:01:05.561Z,7.30
2019-03-08T00:02:04.936Z,7.30
2019-03-08T00:03:05.582Z,7.30
2019-03-08T00:04:05.186Z,7.30
2019-03-08T00:05:05.568Z,7.30
2019-03-08T00:06:05.624Z,7.30
2019-03-08T00:07:07.419Z,7.30
2019-03-08T00:08:08.132Z,7.30
2019-03-08T00:09:05.447Z,7.30
2019-03-08T00:10:05.870Z,7.30
2019-03-08T00:11:05.252Z,7.30
2019-03-08T00:12:08.011Z,7.30
2019-03-08T00:13:05.424Z,7.30
2019-03-08T00:14:05.224Z,7.30
2019-03-08T00:15:13.194Z,7.20
2019-03-08T00:16:08.050Z,7.20
2019-03-08T00:17:07.864Z,7.20
2019-03-08T00:18:05.153Z,7.20
2019-03-08T00:19:10.133Z,7.20
2019-03-08T00:20:08.309Z,7.20
2019-03-08T00:21:05.651Z,7.20
2019-03-08T00:22:08.059Z,7.20
2019-03-08T00:23:05.296Z,7.20
2019-03-08T00:24:05.894Z,7.20
2019-03-08T00:25:05.329Z,7.20
2019-03-08T00:26:05.866Z,7.20
2019-03-08T00:27:07.967Z,7.20
2019-03-08T00:28:07.810Z,7.20
2019-03-08T00:29:04.996Z,7.30
2019-03-08T00:30:05.184Z,7.30
2019-03-08T00:31:05.596Z,7.30
2019-03-08T00:32:10.339Z,7.30
2019-03-08T00:33:05.717Z,7.30
2019-03-08T00:34:05.367Z,7.30
2019-03-08T00:35:05.814Z,7.30
2019-03-08T00:36:05.150Z,7.30
2019-03-08T00:37:10.688Z,7.30
2019-03-08T00:38:04.873Z,7.30
2019-03-08T00:39:05.380Z,7.30
2019-03-08T00:40:05.795Z,7.30
2019-03-08T00:41:07.685Z,7.40
2019-03-08T00:42:04.891Z,7.40
2019-03-08T00:43:05.266Z,7.40
2019-03-08T00:44:05.590Z,7.40
2019-03-08T00:45:05.035Z,7.40
2019-03-08T00:46:05.674Z,7.40
2019-03-08T00:47:05.064Z,7.40
2019-03-08T00:48:05.758Z,7.40
2019-03-08T00:49:05.135Z,7.40
2019-03-08T00:50:07.480Z,7.40
2019-03-08T00:51:05.606Z,7.40
2019-03-08T00:52:05.029Z,7.40
2019-03-08T00:53:05.580Z,7.30
2019-03-08T00:54:07.837Z,7.20
2019-03-08T00:55:05.149Z,7.30
2019-03-08T00:56:05.462Z,7.30
2019-03-08T00:57:05.792Z,7.20
2019-03-08T00:58:05.375Z,7.20
2019-03-08T00:59:05.736Z,7.20
2019-03-08T01:00:07.715Z,7.10
2019-03-08T01:01:04.953Z,7.10
2019-03-08T01:02:05.670Z,7.10
2019-03-08T01:03:07.771Z,7.00
2019-03-08T01:04:07.593Z,7.00
2019-03-08T01:05:05.783Z,7.00
2019-03-08T01:06:07.744Z,6.90
2019-03-08T01:07:05.190Z,6.90
2019-03-08T01:08:08.236Z,6.80
2019-03-08T01:09:10.703Z,6.80
2019-03-08T01:10:05.464Z,6.80
2019-03-08T01:11:08.271Z,6.70
2019-03-08T01:12:10.589Z,6.70
2019-03-08T01:13:06.028Z,6.70
2019-03-08T01:14:07.954Z,6.70
2019-03-08T01:15:05.135Z,6.70
2019-03-08T01:16:05.546Z,6.70
2019-03-08T01:17:07.666Z,6.60
2019-03-08T01:18:05.457Z,6.70
2019-03-08T01:19:05.998Z,6.70
2019-03-08T01:20:07.993Z,6.70
2019-03-08T01:21:05.356Z,6.70
2019-03-08T01:22:05.821Z,6.70
2019-03-08T01:23:05.239Z,6.70
2019-03-08T01:24:05.665Z,6.70
2019-03-08T01:25:12.736Z,6.70
2019-03-08T01:26:04.887Z,6.70
2019-03-08T01:27:05.404Z,6.70
2019-03-08T01:28:05.924Z,6.70
2019-03-08T01:29:05.300Z,6.70
2019-03-08T01:30:08.300Z,6.70
2019-03-08T01:31:08.269Z,6.70
2019-03-08T01:32:05.694Z,6.70
2019-03-08T01:33:05.067Z,6.70
2019-03-08T01:34:04.937Z,6.70
2019-03-08T01:35:07.830Z,6.70
2019-03-08T01:36:04.996Z,6.70
2019-03-08T01:37:05.346Z,6.70
2019-03-08T01:38:05.744Z,6.70
2019-03-08T01:39:07.587Z,6.70
2019-03-08T01:40:05.834Z,6.70
2019-03-08T01:41:07.857Z,6.70
2019-03-08T01:42:08.158Z,6.70
2019-03-08T01:43:05.453Z,6.70
2019-03-08T01:44:06.115Z,6.80
2019-03-08T01:45:08.028Z,6.70
2019-03-08T01:46:05.371Z,6.70
2019-03-08T01:47:06.024Z,6.80
2019-03-08T01:48:08.018Z,6.80
2019-03-08T01:49:05.468Z,6.70
2019-03-08T01:50:05.373Z,6.80
2019-03-08T01:51:05.243Z,6.80
2019-03-08T01:52:08.418Z,6.80
2019-03-08T01:53:05.821Z,6.80
2019-03-08T01:54:05.198Z,6.70
2019-03-08T01:55:05.561Z,6.70
2019-03-08T01:56:08.544Z,6.70
2019-03-08T01:57:05.831Z,6.70
2019-03-08T01:58:05.744Z,6.70
2019-03-08T01:59:05.224Z,6.70
2019-03-08T02:00:05.760Z,6.70
2019-03-08T02:01:05.309Z,6.70
2019-03-08T02:02:05.860Z,6.70
2019-03-08T02:03:07.813Z,6.70
2019-03-08T02:04:04.977Z,6.70
2019-03-08T02:05:05.348Z,6.70
2019-03-08T02:06:07.843Z,6.70
2019-03-08T02:07:05.166Z,6.70
2019-03-08T02:08:05.771Z,6.70
2019-03-08T02:09:05.214Z,6.70
2019-03-08T02:10:08.233Z,6.80
2019-03-08T02:11:05.544Z,6.70
2019-03-08T02:12:04.818Z,6.70
2019-03-08T02:13:05.302Z,6.80
2019-03-08T02:14:07.916Z,6.80
2019-03-08T02:15:05.321Z,6.80
2019-03-08T02:16:05.759Z,6.80
2019-03-08T02:17:05.234Z,6.80
2019-03-08T02:18:08.306Z,6.90
2019-03-08T02:19:05.508Z,6.90
2019-03-08T02:20:05.933Z,6.90
2019-03-08T02:21:06.860Z,6.90
2019-03-08T02:22:05.428Z,6.90
2019-03-08T02:23:08.423Z,6.90
2019-03-08T02:24:08.205Z,6.90
2019-03-08T02:25:05.584Z,6.90
2019-03-08T02:26:05.146Z,7.00
2019-03-08T02:27:08.129Z,7.00
2019-03-08T02:28:05.457Z,7.00
2019-03-08T02:29:05.966Z,7.00
2019-03-08T02:30:05.657Z,7.00
2019-03-08T02:31:05.202Z,7.10
2019-03-08T02:32:05.761Z,7.10
2019-03-08T02:33:05.220Z,7.10
2019-03-08T02:34:08.310Z,7.10
2019-03-08T02:35:05.618Z,7.10
2019-03-08T02:36:07.532Z,7.10
2019-03-08T02:37:05.885Z,7.20
2019-03-08T02:38:05.724Z,7.10
2019-03-08T02:39:05.168Z,7.20
2019-03-08T02:40:05.617Z,7.20
2019-03-08T02:41:05.019Z,7.20
2019-03-08T02:42:07.841Z,7.20
2019-03-08T02:43:04.976Z,7.20
2019-03-08T02:44:05.250Z,7.20
2019-03-08T02:45:05.649Z,7.20
2019-03-08T02:46:05.410Z,7.20
2019-03-08T02:47:05.907Z,7.30
2019-03-08T02:48:05.330Z,7.20
2019-03-08T02:49:06.421Z,7.20
2019-03-08T02:50:05.809Z,7.30
2019-03-08T02:51:05.285Z,7.30
2019-03-08T02:52:05.786Z,7.30
2019-03-08T02:53:05.346Z,7.30
2019-03-08T02:54:05.203Z,7.30
2019-03-08T02:55:08.084Z,7.30
2019-03-08T02:56:05.355Z,7.30
2019-03-08T02:57:08.245Z,7.30
2019-03-08T02:58:10.555Z,7.30
2019-03-08T02:59:04.923Z,7.30
2019-03-08T03:00:07.862Z,7.40
2019-03-08T03:01:05.054Z,7.30
2019-03-08T03:02:05.923Z,7.40
2019-03-08T03:03:05.578Z,7.40
2019-03-08T03:04:04.938Z,7.30
2019-03-08T03:05:12.921Z,7.30
2019-03-08T03:06:07.657Z,7.40
2019-03-08T03:07:07.347Z,7.40
2019-03-08T03:08:05.536Z,7.30
2019-03-08T03:09:07.619Z,7.30
2019-03-08T03:10:05.874Z,7.30
2019-03-08T03:11:05.242Z,7.30
2019-03-08T03:12:05.546Z,7.30
2019-03-08T03:13:07.522Z,7.30
2019-03-08T03:14:08.427Z,7.30
2019-03-08T03:15:05.852Z,7.30
2019-03-08T03:16:07.834Z,7.30
2019-03-08T03:17:05.013Z,7.30
2019-03-08T03:18:05.447Z,7.30
2019-03-08T03:19:05.778Z,7.30
2019-03-08T03:20:05.156Z,7.30
2019-03-08T03:21:08.345Z,7.30
2019-03-08T03:22:08.252Z,7.30
2019-03-08T03:23:05.543Z,7.20
2019-03-08T03:24:05.922Z,7.20
2019-03-08T03:25:05.300Z,7.20
2019-03-08T03:26:05.741Z,7.20
2019-03-08T03:27:05.324Z,7.20
2019-03-08T03:28:08.322Z,7.20
2019-03-08T03:29:05.654Z,7.20
2019-03-08T03:30:05.350Z,7.20
2019-03-08T03:31:08.248Z,7.20
2019-03-08T03:32:05.595Z,7.20
2019-03-08T03:33:04.999Z,7.20
2019-03-08T03:34:05.634Z,7.20
2019-03-08T03:35:10.107Z,7.20
2019-03-08T03:36:05.372Z,7.20
2019-03-08T03:37:05.821Z,7.20
2019-03-08T03:38:05.354Z,7.20
2019-03-08T03:39:05.977Z,7.20
2019-03-08T03:40:05.556Z,7.20
2019-03-08T03:41:04.828Z,7.20
2019-03-08T03:42:08.109Z,7.20
2019-03-08T03:43:08.431Z,7.20
2019-03-08T03:44:08.174Z,7.20
2019-03-08T03:45:05.637Z,7.20
2019-03-08T03:46:05.134Z,7.20
2019-03-08T03:47:05.607Z,7.20
2019-03-08T03:48:07.476Z,7.20
2019-03-08T03:49:05.938Z,7.20
2019-03-08T03:50:08.150Z,7.20
2019-03-08T03:51:04.974Z,7.30
2019-03-08T03:52:05.437Z,7.20
2019-03-08T03:53:05.849Z,7.20
2019-03-08T03:54:07.807Z,7.30
2019-03-08T03:55:07.863Z,7.30
2019-03-08T03:56:05.089Z,7.20
2019-03-08T03:57:05.496Z,7.20
2019-03-08T03:58:07.600Z,7.30
2019-03-08T03:59:05.628Z,7.20
2019-03-08T04:00:05.073Z,7.30
2019-03-08T04:01:05.590Z,7.30
2019-03-08T04:02:05.253Z,7.30
2019-03-08T04:03:08.382Z,7.30
2019-03-08T04:04:05.641Z,7.30
2019-03-08T04:05:07.470Z,7.30
2019-03-08T04:06:13.343Z,7.30
2019-03-08T04:07:05.539Z,7.30
2019-03-08T04:08:07.359Z,7.30
2019-03-08T04:09:05.621Z,7.30
2019-03-08T04:10:04.941Z,7.30
2019-03-08T04:11:07.864Z,7.30
2019-03-08T04:12:07.804Z,7.30
2019-03-08T04:13:05.200Z,7.30
2019-03-08T04:14:05.628Z,7.30
2019-03-08T04:15:07.475Z,7.30
2019-03-08T04:16:05.718Z,7.20
2019-03-08T04:17:05.234Z,7.30
2019-03-08T04:18:05.670Z,7.30
2019-03-08T04:19:07.717Z,7.30
2019-03-08T04:20:07.409Z,7.20
2019-03-08T04:21:05.836Z,7.30
2019-03-08T04:22:07.863Z,7.20
2019-03-08T04:23:05.702Z,7.20
2019-03-08T04:24:05.208Z,7.20
2019-03-08T04:25:05.605Z,7.20
2019-03-08T04:26:05.075Z,7.20
2019-03-08T04:27:05.537Z,7.20
2019-03-08T04:28:07.453Z,7.20
2019-03-08T04:29:05.682Z,7.20
2019-03-08T04:30:08.021Z,7.10
2019-03-08T04:31:05.741Z,7.10
2019-03-08T04:32:08.323Z,7.10
2019-03-08T04:33:08.247Z,7.10
2019-03-08T04:34:08.058Z,7.10
2019-03-08T04:35:05.345Z,7.10
2019-03-08T04:36:08.250Z,7.10
2019-03-08T04:37:08.056Z,7.10
2019-03-08T04:38:05.530Z,7.00
2019-03-08T04:39:07.346Z,7.00
2019-03-08T04:40:05.582Z,7.00
2019-03-08T04:41:04.874Z,7.00
2019-03-08T04:42:07.781Z,7.00
2019-03-08T04:43:07.511Z,6.90
2019-03-08T04:44:05.747Z,6.90
2019-03-08T04:45:05.083Z,7.00
2019-03-08T04:46:05.827Z,6.90
2019-03-08T04:47:07.795Z,6.90
2019-03-08T04:48:05.230Z,6.90
2019-03-08T04:49:05.813Z,6.90
2019-03-08T04:50:05.137Z,6.90
2019-03-08T04:51:05.539Z,6.90
2019-03-08T04:52:04.915Z,6.90
2019-03-08T04:53:05.525Z,6.90
2019-03-08T04:54:05.033Z,6.80
2019-03-08T04:55:05.480Z,6.80
2019-03-08T04:56:08.309Z,6.80
2019-03-08T04:57:08.211Z,6.80
2019-03-08T04:58:05.554Z,6.80
2019-03-08T04:59:05.090Z,6.80
2019-03-08T05:00:05.681Z,6.80
2019-03-08T05:01:07.840Z,6.80
2019-03-08T05:02:05.063Z,6.80
2019-03-08T05:03:05.399Z,6.80
2019-03-08T05:04:05.892Z,6.80
2019-03-08T05:05:05.421Z,6.80
2019-03-08T05:06:08.399Z,6.80
2019-03-08T05:07:08.166Z,6.80
2019-03-08T05:08:05.318Z,6.80
2019-03-08T05:09:05.690Z,6.80
2019-03-08T05:10:05.446Z,6.80
2019-03-08T05:11:08.703Z,6.70
2019-03-08T05:12:04.871Z,6.80
2019-03-08T05:13:05.385Z,6.80
2019-03-08T05:14:08.112Z,6.70
2019-03-08T05:15:05.439Z,6.70
2019-03-08T05:16:06.021Z,6.70
2019-03-08T05:17:08.024Z,6.80
2019-03-08T05:18:05.241Z,6.70
2019-03-08T05:19:05.830Z,6.70
2019-03-08T05:20:05.628Z,6.70
2019-03-08T05:21:05.365Z,6.70
2019-03-08T05:22:05.814Z,6.70
2019-03-08T05:23:05.118Z,6.70
2019-03-08T05:24:05.747Z,6.70
2019-03-08T05:25:08.121Z,6.70
2019-03-08T05:26:05.512Z,6.70
2019-03-08T05:27:06.068Z,6.70
2019-03-08T05:28:05.467Z,6.70
2019-03-08T05:29:05.794Z,6.70
2019-03-08T05:30:07.745Z,6.70
2019-03-08T05:31:07.645Z,6.70
2019-03-08T05:32:04.924Z,6.70
2019-03-08T05:33:05.597Z,6.60
2019-03-08T05:34:05.439Z,6.70
2019-03-08T05:35:05.915Z,6.70
2019-03-08T05:36:05.411Z,6.70
2019-03-08T05:37:08.535Z,6.60
2019-03-08T05:38:05.795Z,6.70
2019-03-08T05:39:05.121Z,6.70
2019-03-08T05:40:07.836Z,6.70
2019-03-08T05:41:05.524Z,6.70
2019-03-08T05:42:08.072Z,6.60
2019-03-08T05:43:07.827Z,6.70
2019-03-08T05:44:10.377Z,6.60
2019-03-08T05:45:08.366Z,6.60
2019-03-08T05:46:08.248Z,6.60
2019-03-08T05:47:08.229Z,6.60
2019-03-08T05:48:05.674Z,6.60
2019-03-08T05:49:05.149Z,6.70
2019-03-08T05:50:05.744Z,6.70
2019-03-08T05:51:05.078Z,6.60
2019-03-08T05:52:08.224Z,6.70
2019-03-08T05:53:05.501Z,6.70
2019-03-08T05:54:07.233Z,6.70
2019-03-08T05:55:08.343Z,6.70
2019-03-08T05:56:08.182Z,6.70
2019-03-08T05:57:05.389Z,6.70
2019-03-08T05:58:05.503Z,6.70
2019-03-08T05:59:05.942Z,6.70
2019-03-08T06:00:05.258Z,6.70
2019-03-08T06:01:06.182Z,6.80
2019-03-08T06:02:08.105Z,6.70
2019-03-08T06:03:05.437Z,6.80
2019-03-08T06:04:08.342Z,6.70
2019-03-08T06:05:08.085Z,6.70
2019-03-08T06:06:05.112Z,6.70
2019-03-08T06:07:05.660Z,6.70
2019-03-08T06:08:05.153Z,6.80
2019-03-08T06:09:05.536Z,6.80
2019-03-08T06:10:05.020Z,6.80
2019-03-08T06:11:05.450Z,6.70
2019-03-08T06:12:05.104Z,6.70
2019-03-08T06:13:08.442Z,6.70
2019-03-08T06:14:06.026Z,6.70
2019-03-08T06:15:08.237Z,6.80
2019-03-08T06:16:10.857Z,6.70
2019-03-08T06:17:05.091Z,6.80
2019-03-08T06:18:08.344Z,6.70
2019-03-08T06:19:06.005Z,6.70
2019-03-08T06:20:07.880Z,6.70
2019-03-08T06:21:07.676Z,6.70
2019-03-08T06:22:10.031Z,6.70
2019-03-08T06:23:05.951Z,6.70
2019-03-08T06:24:05.466Z,6.80
2019-03-08T06:25:05.044Z,6.80
2019-03-08T06:26:05.628Z,6.80
2019-03-08T06:27:07.716Z,6.90
2019-03-08T06:28:07.713Z,6.80
2019-03-08T06:29:05.641Z,6.80
2019-03-08T06:30:05.004Z,6.90
2019-03-08T06:31:05.486Z,6.90
2019-03-08T06:32:08.483Z,7.00
2019-03-08T06:33:05.782Z,7.00
2019-03-08T06:34:05.270Z,7.00
2019-03-08T06:35:05.601Z,7.00
2019-03-08T06:36:07.436Z,7.10
2019-03-08T06:37:07.761Z,7.20
2019-03-08T06:38:05.008Z,7.20
2019-03-08T06:39:05.611Z,7.30
2019-03-08T06:40:07.720Z,7.50
2019-03-08T06:41:04.909Z,7.50
2019-03-08T06:42:05.310Z,7.60
2019-03-08T06:43:05.889Z,7.70
2019-03-08T06:44:05.513Z,7.80
2019-03-08T06:45:05.357Z,7.90
2019-03-08T06:46:08.521Z,8.10
2019-03-08T06:47:08.585Z,8.20
2019-03-08T06:48:06.266Z,8.10
2019-03-08T06:49:05.868Z,8.20
2019-03-08T06:50:05.383Z,8.30
2019-03-08T06:51:08.580Z,8.50
2019-03-08T06:52:05.945Z,8.40
2019-03-08T06:53:08.356Z,8.60
2019-03-08T06:54:06.175Z,8.60
2019-03-08T06:55:08.085Z,8.70
2019-03-08T06:56:05.290Z,8.70
2019-03-08T06:57:05.752Z,8.80
2019-03-08T06:58:05.712Z,8.90
2019-03-08T06:59:05.681Z,8.90
2019-03-08T07:00:05.327Z,8.90
2019-03-08T07:01:05.875Z,9.00
2019-03-08T07:02:05.417Z,9.00
2019-03-08T07:03:05.795Z,9.10
2019-03-08T07:04:05.166Z,9.10
2019-03-08T07:05:05.826Z,9.10
2019-03-08T07:06:05.454Z,9.10
2019-03-08T07:07:05.778Z,9.20
2019-03-08T07:08:08.105Z,9.30
2019-03-08T07:09:05.444Z,9.30
2019-03-08T07:10:08.298Z,9.30
2019-03-08T07:11:07.977Z,9.30
2019-03-08T07:12:05.188Z,9.30
2019-03-08T07:13:05.740Z,9.40
2019-03-08T07:14:07.706Z,9.40
2019-03-08T07:15:05.870Z,9.40
2019-03-08T07:16:12.627Z,9.50
2019-03-08T07:17:07.748Z,9.50
2019-03-08T07:18:11.930Z,9.50
2019-03-08T07:19:05.355Z,9.40
2019-03-08T07:20:08.496Z,9.40
2019-03-08T07:21:05.648Z,9.40
2019-03-08T07:22:07.818Z,9.40
2019-03-08T07:23:11.089Z,9.30
2019-03-08T07:24:05.764Z,9.30
2019-03-08T07:25:05.134Z,9.30
2019-03-08T07:26:05.615Z,9.30
2019-03-08T07:27:05.109Z,9.20
2019-03-08T07:28:08.117Z,9.20
2019-03-08T07:29:05.666Z,9.20
2019-03-08T07:30:05.027Z,9.20
2019-03-08T07:31:13.374Z,9.10
2019-03-08T07:32:05.749Z,9.10
2019-03-08T07:33:07.686Z,9.10
2019-03-08T07:34:05.034Z,9.10
2019-03-08T07:35:05.441Z,9.10
2019-03-08T07:36:05.871Z,9.10
2019-03-08T07:37:05.250Z,9.00
2019-03-08T07:38:05.778Z,9.10
2019-03-08T07:39:07.818Z,9.00
2019-03-08T07:40:08.338Z,9.10
2019-03-08T07:41:05.784Z,9.00
2019-03-08T07:42:05.163Z,9.00
2019-03-08T07:43:05.526Z,9.00
2019-03-08T07:44:04.901Z,9.00
2019-03-08T07:45:07.850Z,9.00
2019-03-08T07:46:07.859Z,9.00
2019-03-08T07:47:05.399Z,9.00
2019-03-08T07:48:08.055Z,9.10
2019-03-08T07:49:05.371Z,9.10
2019-03-08T07:50:08.422Z,9.10
2019-03-08T07:51:05.908Z,9.10
2019-03-08T07:52:05.535Z,9.20
2019-03-08T07:53:05.003Z,9.10
2019-03-08T07:54:05.565Z,9.10
2019-03-08T07:55:05.108Z,9.10
2019-03-08T07:56:06.316Z,9.00
2019-03-08T07:57:05.911Z,9.00
2019-03-08T07:58:08.089Z,8.90
2019-03-08T07:59:05.306Z,8.80
2019-03-08T08:00:08.397Z,8.70
2019-03-08T08:01:05.971Z,8.70
2019-03-08T08:02:08.081Z,8.60
2019-03-08T08:03:08.187Z,8.60
2019-03-08T08:04:05.532Z,8.60
2019-03-08T08:05:07.549Z,8.50
2019-03-08T08:06:06.012Z,8.40
2019-03-08T08:07:05.550Z,8.50
2019-03-08T08:08:04.882Z,8.40
2019-03-08T08:09:07.828Z,8.30
2019-03-08T08:10:05.165Z,8.30
2019-03-08T08:11:05.510Z,8.30
2019-03-08T08:12:05.132Z,8.30
2019-03-08T08:13:07.991Z,8.20
2019-03-08T08:14:07.701Z,8.10
2019-03-08T08:15:04.849Z,8.20
2019-03-08T08:16:05.455Z,8.10
2019-03-08T08:17:08.445Z,8.10
2019-03-08T08:18:08.326Z,8.10
2019-03-08T08:19:05.873Z,8.10
2019-03-08T08:20:16.034Z,8.10
2019-03-08T08:21:05.922Z,8.10
2019-03-08T08:22:05.352Z,8.10
2019-03-08T08:23:05.911Z,8.00
2019-03-08T08:24:05.423Z,8.00
2019-03-08T08:25:04.887Z,8.10
2019-03-08T08:26:07.876Z,8.00
2019-03-08T08:27:06.936Z,8.00
2019-03-08T08:28:08.219Z,8.00
2019-03-08T08:29:04.892Z,8.00
2019-03-08T08:30:05.304Z,8.00
2019-03-08T08:31:05.666Z,8.00
2019-03-08T08:32:04.987Z,8.00
2019-03-08T08:33:05.368Z,8.00
2019-03-08T08:34:08.269Z,8.00
2019-03-08T08:35:08.250Z,7.90
2019-03-08T08:36:08.318Z,7.90
2019-03-08T08:37:05.606Z,7.90
2019-03-08T08:38:05.012Z,7.90
2019-03-08T08:39:05.729Z,7.90
2019-03-08T08:40:05.164Z,7.90
2019-03-08T08:41:08.482Z,7.90
2019-03-08T08:42:05.867Z,7.90
2019-03-08T08:43:05.229Z,7.90
2019-03-08T08:44:05.827Z,7.90
2019-03-08T08:45:07.898Z,7.90
2019-03-08T08:46:05.175Z,7.90
2019-03-08T08:47:05.667Z,7.90
2019-03-08T08:48:07.755Z,7.90
2019-03-08T08:49:04.981Z,7.90
2019-03-08T08:50:05.317Z,7.90
2019-03-08T08:51:08.416Z,8.00
2019-03-08T08:52:08.475Z,8.00
2019-03-08T08:53:07.645Z,8.10
2019-03-08T08:54:04.843Z,8.00
2019-03-08T08:55:05.234Z,8.10
2019-03-08T08:56:05.609Z,8.00
2019-03-08T08:57:07.587Z,8.10
2019-03-08T08:58:16.272Z,8.10
2019-03-08T08:59:05.625Z,8.10
2019-03-08T09:00:05.105Z,8.10
2019-03-08T09:01:08.120Z,8.10
2019-03-08T09:02:08.213Z,8.10
2019-03-08T09:03:08.224Z,8.10
2019-03-08T09:04:05.724Z,8.10
2019-03-08T09:05:05.167Z,8.10
2019-03-08T09:06:05.556Z,8.10
2019-03-08T09:07:04.919Z,8.10
2019-03-08T09:08:05.673Z,8.10
2019-03-08T09:09:05.251Z,8.10
2019-03-08T09:10:08.329Z,8.10
2019-03-08T09:11:05.651Z,8.10
2019-03-08T09:12:04.922Z,8.10
2019-03-08T09:13:05.465Z,8.00
2019-03-08T09:14:05.992Z,8.10
2019-03-08T09:15:05.654Z,8.00
2019-03-08T09:16:05.360Z,8.00
2019-03-08T09:17:05.098Z,8.00
2019-03-08T09:18:05.604Z,8.00
2019-03-08T09:19:04.872Z,8.00
2019-03-08T09:20:05.537Z,8.00
2019-03-08T09:21:10.946Z,8.00
2019-03-08T09:22:05.154Z,8.10
2019-03-08T09:23:05.563Z,8.00
2019-03-08T09:24:05.424Z,8.10
2019-03-08T09:25:05.935Z,8.00
2019-03-08T09:26:05.354Z,8.10
2019-03-08T09:27:06.087Z,8.10
2019-03-08T09:28:05.440Z,8.10
2019-03-08T09:29:05.953Z,8.10
2019-03-08T09:30:05.750Z,8.10
2019-03-08T09:31:05.082Z,8.10
2019-03-08T09:32:04.875Z,8.10
2019-03-08T09:33:05.175Z,8.10
2019-03-08T09:34:08.354Z,8.10
2019-03-08T09:35:05.786Z,8.10
2019-03-08T09:36:07.757Z,8.10
2019-03-08T09:37:05.052Z,8.10
2019-03-08T09:38:05.465Z,8.10
2019-03-08T09:39:10.998Z,8.10
2019-03-08T09:40:05.299Z,8.10
2019-03-08T09:41:05.710Z,8.10
2019-03-08T09:42:07.580Z,8.20
2019-03-08T09:43:05.885Z,8.10
2019-03-08T09:44:05.464Z,8.20
2019-03-08T09:45:06.094Z,8.20
2019-03-08T09:46:05.528Z,8.20
2019-03-08T09:47:05.858Z,8.20
2019-03-08T09:48:05.734Z,8.30
2019-03-08T09:49:07.767Z,8.40
2019-03-08T09:50:05.106Z,8.30
2019-03-08T09:51:13.095Z,8.40
2019-03-08T09:52:05.331Z,8.40
2019-03-08T09:53:05.890Z,8.40
2019-03-08T09:54:07.886Z,8.50
2019-03-08T09:55:05.168Z,8.50
2019-03-08T09:56:07.705Z,8.50
2019-03-08T09:57:05.057Z,8.60
2019-03-08T09:58:08.098Z,8.60
2019-03-08T09:59:05.563Z,8.70
2019-03-08T10:00:04.906Z,8.70
2019-03-08T10:01:05.491Z,8.80
2019-03-08T10:02:05.024Z,8.80
2019-03-08T10:03:05.378Z,8.90
2019-03-08T10:04:05.121Z,9.00
2019-03-08T10:05:05.763Z,9.10
2019-03-08T10:06:05.476Z,9.20
2019-03-08T10:07:04.841Z,9.30
2019-03-08T10:08:05.395Z,9.40
2019-03-08T10:09:05.852Z,9.50
2019-03-08T10:10:07.890Z,9.60
2019-03-08T10:11:05.116Z,9.60
2019-03-08T10:12:06.017Z,9.60
2019-03-08T10:13:08.022Z,9.70
2019-03-08T10:14:07.721Z,9.70
2019-03-08T10:15:05.101Z,9.70
2019-03-08T10:16:08.002Z,9.70
2019-03-08T10:17:07.921Z,9.70
2019-03-08T10:18:05.180Z,9.70
2019-03-08T10:19:08.259Z,9.70
2019-03-08T10:20:05.487Z,9.70
2019-03-08T10:21:05.903Z,9.70
2019-03-08T10:22:07.823Z,9.70
2019-03-08T10:23:07.729Z,9.70
2019-03-08T10:24:04.975Z,9.70
2019-03-08T10:25:07.906Z,9.70
2019-03-08T10:26:05.174Z,9.70
2019-03-08T10:27:05.768Z,9.60
2019-03-08T10:28:08.055Z,9.60
2019-03-08T10:29:07.845Z,9.50
2019-03-08T10:30:05.031Z,9.50
2019-03-08T10:31:05.457Z,9.50
2019-03-08T10:32:05.882Z,9.50
2019-03-08T10:33:07.829Z,9.40
2019-03-08T10:34:05.183Z,9.40
2019-03-08T10:35:05.586Z,9.30
2019-03-08T10:36:08.038Z,9.30
2019-03-08T10:37:10.464Z,9.20
2019-03-08T10:38:08.237Z,9.20
2019-03-08T10:39:08.036Z,9.10
2019-03-08T10:40:05.730Z,9.10
2019-03-08T10:41:07.762Z,9.10
2019-03-08T10:42:05.161Z,9.10
2019-03-08T10:43:08.248Z,9.00
2019-03-08T10:44:09.006Z,9.00
2019-03-08T10:45:08.026Z,9.00
2019-03-08T10:46:15.453Z,8.90
2019-03-08T10:47:05.134Z,8.90
2019-03-08T10:48:05.772Z,9.00
2019-03-08T10:49:05.708Z,8.90
2019-03-08T10:50:05.056Z,8.90
2019-03-08T10:51:16.460Z,8.90
2019-03-08T10:52:05.900Z,9.00
2019-03-08T10:53:05.354Z,9.00
2019-03-08T10:54:05.850Z,9.00
2019-03-08T10:55:05.276Z,9.10
2019-03-08T10:56:07.693Z,9.20
2019-03-08T10:57:04.898Z,9.20
2019-03-08T10:58:07.995Z,9.30
2019-03-08T10:59:05.362Z,9.30
2019-03-08T11:00:05.027Z,9.30
2019-03-08T11:01:05.543Z,9.30
2019-03-08T11:02:07.972Z,9.40
2019-03-08T11:03:05.165Z,9.40
2019-03-08T11:04:08.107Z,9.50
2019-03-08T11:05:05.311Z,9.50
2019-03-08T11:06:05.770Z,9.50
2019-03-08T11:07:05.071Z,9.50
2019-03-08T11:08:09.014Z,9.50
2019-03-08T11:09:08.421Z,9.50
2019-03-08T11:10:05.631Z,9.50
2019-03-08T11:11:06.487Z,9.50
2019-03-08T11:12:05.470Z,9.50
2019-03-08T11:13:05.930Z,9.50
2019-03-08T11:14:05.237Z,9.60
2019-03-08T11:15:05.611Z,9.60
2019-03-08T11:16:05.292Z,9.60
2019-03-08T11:17:05.775Z,9.60
2019-03-08T11:18:07.760Z,9.60
2019-03-08T11:19:08.628Z,9.60
2019-03-08T11:20:05.497Z,9.70
2019-03-08T11:21:08.513Z,9.80
2019-03-08T11:22:05.791Z,9.80
2019-03-08T11:23:05.222Z,9.80
2019-03-08T11:24:05.148Z,9.80
2019-03-08T11:25:08.335Z,9.80
2019-03-08T11:26:05.078Z,9.80
2019-03-08T11:27:05.664Z,9.70
2019-03-08T11:28:05.045Z,9.70
2019-03-08T11:29:05.403Z,9.60
2019-03-08T11:30:04.961Z,9.50
2019-03-08T11:31:07.856Z,9.40
2019-03-08T11:32:05.151Z,9.30
2019-03-08T11:33:05.716Z,9.30
2019-03-08T11:34:07.659Z,9.10
2019-03-08T11:35:05.121Z,9.10
2019-03-08T11:36:05.591Z,9.00
2019-03-08T11:37:07.774Z,8.80
2019-03-08T11:38:04.983Z,8.80
2019-03-08T11:39:15.474Z,8.70
2019-03-08T11:40:08.246Z,8.60
2019-03-08T11:41:05.101Z,8.60
2019-03-08T11:42:05.605Z,8.50
2019-03-08T11:43:05.028Z,8.50
2019-03-08T11:44:08.018Z,8.40
2019-03-08T11:45:07.882Z,8.30
2019-03-08T11:46:05.000Z,8.40
2019-03-08T11:47:05.383Z,8.30
2019-03-08T11:48:05.699Z,8.20
2019-03-08T11:49:07.559Z,8.20
2019-03-08T11:50:05.877Z,8.20
2019-03-08T11:51:05.337Z,8.20
2019-03-08T11:52:05.898Z,8.10
2019-03-08T11:53:07.901Z,8.10
2019-03-08T11:54:07.653Z,8.10
2019-03-08T11:55:04.848Z,8.00
2019-03-08T11:56:05.326Z,8.10
2019-03-08T11:57:05.606Z,8.10
2019-03-08T11:58:04.871Z,8.10
2019-03-08T11:59:05.106Z,8.00
2019-03-08T12:00:08.148Z,8.10
2019-03-08T12:01:05.631Z,8.10
2019-03-08T12:02:05.654Z,8.10
2019-03-08T12:03:05.196Z,8.00
2019-03-08T12:04:05.668Z,8.00
2019-03-08T12:05:08.136Z,8.10
2019-03-08T12:06:05.378Z,8.10
2019-03-08T12:07:05.831Z,8.10
2019-03-08T12:08:05.212Z,8.10
2019-03-08T12:09:05.686Z,8.10
2019-03-08T12:10:05.101Z,8.20
2019-03-08T12:11:10.498Z,8.20
2019-03-08T12:12:05.855Z,8.20
2019-03-08T12:13:05.792Z,8.20
2019-03-08T12:14:07.881Z,8.30
2019-03-08T12:15:05.380Z,8.20
2019-03-08T12:16:04.762Z,8.20
2019-03-08T12:17:07.779Z,8.30
2019-03-08T12:18:07.718Z,8.30
2019-03-08T12:19:05.094Z,8.30
2019-03-08T12:20:05.747Z,8.30
2019-03-08T12:21:05.615Z,8.30
2019-03-08T12:22:05.120Z,8.30
2019-03-08T12:23:05.629Z,8.30
2019-03-08T12:24:07.434Z,8.20
2019-03-08T12:25:05.756Z,8.30
2019-03-08T12:26:07.633Z,8.30
2019-03-08T12:27:10.072Z,8.30
2019-03-08T12:28:07.996Z,8.30
2019-03-08T12:29:05.551Z,8.30
2019-03-08T12:30:04.903Z,8.30
2019-03-08T12:31:05.261Z,8.30
2019-03-08T12:32:05.667Z,8.30
2019-03-08T12:33:07.602Z,8.30
2019-03-08T12:34:05.948Z,8.30
2019-03-08T12:35:05.417Z,8.30
2019-03-08T12:36:05.967Z,8.30
2019-03-08T12:37:10.901Z,8.30
2019-03-08T12:38:04.982Z,8.30
2019-03-08T12:39:08.067Z,8.30
2019-03-08T12:40:07.990Z,8.30
2019-03-08T12:41:07.862Z,8.40
2019-03-08T12:42:07.855Z,8.30
2019-03-08T12:43:07.941Z,8.30
2019-03-08T12:44:05.757Z,8.40
2019-03-08T12:45:05.520Z,8.40
2019-03-08T12:46:05.883Z,8.40
2019-03-08T12:47:05.475Z,8.40
2019-03-08T12:48:04.803Z,8.40
2019-03-08T12:49:05.183Z,8.40
2019-03-08T12:50:08.098Z,8.50
2019-03-08T12:51:07.911Z,8.50
2019-03-08T12:52:05.279Z,8.50
2019-03-08T12:53:05.784Z,8.50
2019-03-08T12:54:05.065Z,8.50
2019-03-08T12:55:08.014Z,8.50
2019-03-08T12:56:05.174Z,8.60
2019-03-08T12:57:05.618Z,8.50
2019-03-08T12:58:04.943Z,8.50
2019-03-08T12:59:05.390Z,8.50
2019-03-08T13:00:05.828Z,8.50
2019-03-08T13:01:05.350Z,8.50
2019-03-08T13:02:09.408Z,8.50
2019-03-08T13:03:05.595Z,8.50
2019-03-08T13:04:04.958Z,8.50
2019-03-08T13:05:07.758Z,8.50
2019-03-08T13:06:05.236Z,8.50
2019-03-08T13:07:05.951Z,8.40
2019-03-08T13:08:05.540Z,8.50
2019-03-08T13:09:05.378Z,8.50
2019-03-08T13:10:05.636Z,8.50
2019-03-08T13:11:04.940Z,8.50
2019-03-08T13:12:05.305Z,8.50
2019-03-08T13:13:10.937Z,8.50
2019-03-08T13:14:05.162Z,8.50
2019-03-08T13:15:08.113Z,8.50
2019-03-08T13:16:06.247Z,8.50
2019-03-08T13:17:08.456Z,8.60
2019-03-08T13:18:14.047Z,8.60